createdAt,value
2023-07-12T00:00:19.729Z,428.00
2023-07-12T00:01:19.730Z,427.00
2023-07-12T00:02:19.802Z,429.00
2023-07-12T00:03:19.724Z,427.00
2023-07-12T00:04:19.693Z,429.00
2023-07-12T00:05:19.648Z,430.00
2023-07-12T00:06:19.632Z,430.00
2023-07-12T00:07:19.609Z,430.00
2023-07-12T00:08:19.587Z,429.00
2023-07-12T00:09:19.567Z,428.00
2023-07-12T00:10:19.549Z,430.00
2023-07-12T00:11:19.531Z,433.00
2023-07-12T00:12:19.524Z,433.00
2023-07-12T00:13:19.505Z,431.00
2023-07-12T00:14:19.489Z,430.00
2023-07-12T00:15:19.455Z,429.00
2023-07-12T00:16:19.524Z,429.00
2023-07-12T00:17:19.429Z,429.00
2023-07-12T00:18:19.455Z,430.00
2023-07-12T00:19:19.396Z,428.00
2023-07-12T00:20:19.396Z,430.00
2023-07-12T00:21:19.374Z,430.00
2023-07-12T00:22:19.358Z,431.00
2023-07-12T00:23:19.368Z,428.00
2023-07-12T00:24:19.326Z,430.00
2023-07-12T00:25:19.310Z,432.00
2023-07-12T00:26:19.293Z,432.00
2023-07-12T00:27:19.274Z,434.00
2023-07-12T00:28:19.247Z,433.00
2023-07-12T00:29:19.220Z,431.00
2023-07-12T00:30:19.201Z,430.00
2023-07-12T00:31:19.244Z,432.00
2023-07-12T00:32:19.289Z,433.00
2023-07-12T00:33:19.149Z,435.00
2023-07-12T00:34:19.137Z,435.00
2023-07-12T00:35:19.111Z,438.00
2023-07-12T00:36:19.081Z,439.00
2023-07-12T00:37:19.052Z,436.00
2023-07-12T00:38:19.051Z,435.00
2023-07-12T00:39:19.018Z,434.00
2023-07-12T00:40:18.997Z,432.00
2023-07-12T00:41:18.986Z,432.00
2023-07-12T00:42:18.964Z,432.00
2023-07-12T00:43:18.939Z,433.00
2023-07-12T00:44:18.925Z,432.00
2023-07-12T00:45:18.902Z,433.00
2023-07-12T00:46:18.932Z,435.00
2023-07-12T00:47:18.880Z,434.00
2023-07-12T00:48:18.848Z,431.00
2023-07-12T00:49:18.842Z,430.00
2023-07-12T00:50:18.819Z,430.00
2023-07-12T00:51:18.797Z,431.00
2023-07-12T00:52:18.778Z,431.00
2023-07-12T00:53:18.743Z,434.00
2023-07-12T00:54:18.726Z,433.00
2023-07-12T00:55:18.709Z,433.00
2023-07-12T00:56:18.679Z,433.00
2023-07-12T00:57:18.681Z,434.00
2023-07-12T00:58:18.632Z,436.00
2023-07-12T00:59:18.631Z,435.00
2023-07-12T01:00:18.651Z,434.00
2023-07-12T01:01:18.690Z,433.00
2023-07-12T01:02:18.698Z,435.00
2023-07-12T01:03:18.734Z,436.00
2023-07-12T01:04:18.712Z,434.00
2023-07-12T01:05:18.813Z,433.00
2023-07-12T01:06:18.817Z,433.00
2023-07-12T01:07:18.771Z,429.00
2023-07-12T01:08:18.794Z,429.00
2023-07-12T01:09:18.800Z,426.00
2023-07-12T01:10:18.824Z,427.00
2023-07-12T01:11:18.847Z,427.00
2023-07-12T01:12:18.856Z,429.00
2023-07-12T01:13:18.866Z,430.00
2023-07-12T01:14:18.921Z,428.00
2023-07-12T01:15:18.910Z,429.00
2023-07-12T01:16:18.923Z,429.00
2023-07-12T01:17:18.931Z,430.00
2023-07-12T01:18:19.053Z,431.00
2023-07-12T01:19:18.962Z,435.00
2023-07-12T01:20:18.994Z,438.00
2023-07-12T01:21:19.000Z,439.00
2023-07-12T01:22:19.017Z,442.00
2023-07-12T01:23:19.034Z,442.00
2023-07-12T01:24:19.032Z,441.00
2023-07-12T01:25:19.036Z,441.00
2023-07-12T01:26:19.045Z,441.00
2023-07-12T01:27:19.045Z,440.00
2023-07-12T01:28:19.066Z,439.00
2023-07-12T01:29:19.070Z,440.00
2023-07-12T01:30:19.081Z,439.00
2023-07-12T01:31:19.113Z,436.00
2023-07-12T01:32:19.122Z,433.00
2023-07-12T01:33:19.116Z,433.00
2023-07-12T01:34:19.186Z,432.00
2023-07-12T01:35:19.133Z,431.00
2023-07-12T01:36:19.141Z,430.00
2023-07-12T01:37:19.168Z,429.00
2023-07-12T01:38:19.165Z,429.00
2023-07-12T01:39:19.175Z,430.00
2023-07-12T01:40:19.181Z,427.00
2023-07-12T01:41:19.198Z,430.00
2023-07-12T01:42:19.211Z,432.00
2023-07-12T01:43:19.224Z,432.00
2023-07-12T01:44:19.236Z,434.00
2023-07-12T01:45:19.245Z,435.00
2023-07-12T01:46:21.142Z,435.00
2023-07-12T01:47:19.261Z,436.00
2023-07-12T01:48:19.303Z,435.00
2023-07-12T01:49:19.295Z,434.00
2023-07-12T01:50:19.312Z,433.00
2023-07-12T01:51:19.324Z,433.00
2023-07-12T01:52:19.342Z,431.00
2023-07-12T01:53:19.338Z,432.00
2023-07-12T01:54:19.359Z,432.00
2023-07-12T01:55:19.366Z,432.00
2023-07-12T01:56:19.380Z,433.00
2023-07-12T01:57:19.389Z,435.00
2023-07-12T01:58:19.396Z,436.00
2023-07-12T01:59:19.398Z,437.00
2023-07-12T02:00:19.399Z,436.00
2023-07-12T02:01:19.487Z,435.00
2023-07-12T02:02:19.518Z,431.00
2023-07-12T02:03:19.560Z,432.00
2023-07-12T02:04:19.436Z,433.00
2023-07-12T02:05:19.480Z,437.00
2023-07-12T02:06:19.454Z,438.00
2023-07-12T02:07:19.452Z,438.00
2023-07-12T02:08:19.495Z,439.00
2023-07-12T02:09:19.489Z,439.00
2023-07-12T02:10:19.481Z,438.00
2023-07-12T02:11:19.480Z,438.00
2023-07-12T02:12:19.516Z,438.00
2023-07-12T02:13:19.478Z,438.00
2023-07-12T02:14:19.497Z,435.00
2023-07-12T02:15:19.573Z,437.00
2023-07-12T02:16:19.613Z,438.00
2023-07-12T02:17:19.595Z,436.00
2023-07-12T02:18:19.558Z,436.00
2023-07-12T02:19:19.522Z,436.00
2023-07-12T02:20:19.547Z,438.00
2023-07-12T02:21:19.541Z,439.00
2023-07-12T02:22:19.551Z,441.00
2023-07-12T02:23:19.553Z,445.00
2023-07-12T02:24:19.558Z,446.00
2023-07-12T02:25:19.578Z,443.00
2023-07-12T02:26:19.581Z,442.00
2023-07-12T02:27:19.588Z,441.00
2023-07-12T02:28:19.580Z,438.00
2023-07-12T02:29:19.593Z,439.00
2023-07-12T02:30:19.619Z,439.00
2023-07-12T02:31:19.645Z,440.00
2023-07-12T02:32:19.610Z,441.00
2023-07-12T02:33:19.616Z,441.00
2023-07-12T02:34:19.621Z,443.00
2023-07-12T02:35:19.637Z,441.00
2023-07-12T02:36:19.641Z,442.00
2023-07-12T02:37:19.648Z,441.00
2023-07-12T02:38:19.673Z,440.00
2023-07-12T02:39:19.663Z,441.00
2023-07-12T02:40:19.668Z,438.00
2023-07-12T02:41:19.680Z,440.00
2023-07-12T02:42:19.701Z,439.00
2023-07-12T02:43:19.697Z,438.00
2023-07-12T02:44:19.707Z,438.00
2023-07-12T02:45:19.705Z,440.00
2023-07-12T02:46:19.805Z,441.00
2023-07-12T02:47:19.723Z,442.00
2023-07-12T02:48:19.730Z,441.00
2023-07-12T02:49:19.733Z,442.00
2023-07-12T02:50:19.744Z,444.00
2023-07-12T02:51:19.741Z,445.00
2023-07-12T02:52:19.757Z,441.00
2023-07-12T02:53:19.760Z,441.00
2023-07-12T02:54:19.770Z,439.00
2023-07-12T02:55:19.776Z,438.00
2023-07-12T02:56:19.789Z,438.00
2023-07-12T02:57:19.793Z,437.00
2023-07-12T02:58:19.815Z,435.00
2023-07-12T02:59:19.849Z,435.00
2023-07-12T03:00:19.809Z,434.00
2023-07-12T03:01:19.876Z,431.00
2023-07-12T03:02:19.860Z,433.00
2023-07-12T03:03:19.841Z,433.00
2023-07-12T03:04:19.913Z,434.00
2023-07-12T03:05:19.878Z,435.00
2023-07-12T03:06:19.879Z,436.00
2023-07-12T03:07:19.889Z,438.00
2023-07-12T03:08:19.897Z,438.00
2023-07-12T03:09:19.912Z,438.00
2023-07-12T03:10:19.920Z,440.00
2023-07-12T03:11:19.927Z,440.00
2023-07-12T03:12:19.940Z,441.00
2023-07-12T03:13:19.945Z,443.00
2023-07-12T03:14:19.953Z,443.00
2023-07-12T03:15:21.254Z,445.00
2023-07-12T03:16:19.987Z,445.00
2023-07-12T03:17:20.116Z,444.00
2023-07-12T03:18:20.165Z,444.00
2023-07-12T03:19:20.013Z,445.00
2023-07-12T03:20:20.025Z,448.00
2023-07-12T03:21:20.028Z,449.00
2023-07-12T03:22:20.045Z,447.00
2023-07-12T03:23:20.039Z,444.00
2023-07-12T03:24:20.060Z,443.00
2023-07-12T03:25:20.056Z,442.00
2023-07-12T03:26:20.081Z,438.00
2023-07-12T03:27:20.079Z,439.00
2023-07-12T03:28:20.077Z,438.00
2023-07-12T03:29:20.086Z,439.00
2023-07-12T03:30:20.094Z,441.00
2023-07-12T03:31:20.140Z,439.00
2023-07-12T03:32:20.141Z,440.00
2023-07-12T03:33:20.115Z,440.00
2023-07-12T03:34:20.124Z,440.00
2023-07-12T03:35:20.128Z,440.00
2023-07-12T03:36:20.118Z,439.00
2023-07-12T03:37:20.118Z,438.00
2023-07-12T03:38:20.365Z,437.00
2023-07-12T03:39:20.147Z,439.00
2023-07-12T03:40:20.167Z,440.00
2023-07-12T03:41:20.182Z,439.00
2023-07-12T03:42:20.199Z,437.00
2023-07-12T03:43:20.220Z,435.00
2023-07-12T03:44:20.244Z,434.00
2023-07-12T03:45:20.257Z,434.00
2023-07-12T03:46:20.275Z,436.00
2023-07-12T03:47:22.422Z,435.00
2023-07-12T03:48:20.313Z,436.00
2023-07-12T03:49:20.246Z,435.00
2023-07-12T03:50:20.231Z,436.00
2023-07-12T03:51:20.186Z,436.00
2023-07-12T03:52:20.164Z,434.00
2023-07-12T03:53:20.130Z,432.00
2023-07-12T03:54:20.105Z,432.00
2023-07-12T03:55:20.081Z,433.00
2023-07-12T03:56:20.066Z,433.00
2023-07-12T03:57:20.026Z,436.00
2023-07-12T03:58:19.992Z,439.00
2023-07-12T03:59:19.968Z,442.00
2023-07-12T04:00:19.957Z,441.00
2023-07-12T04:01:19.963Z,441.00
2023-07-12T04:02:19.895Z,441.00
2023-07-12T04:03:19.958Z,441.00
2023-07-12T04:04:19.838Z,442.00
2023-07-12T04:05:19.808Z,439.00
2023-07-12T04:06:19.803Z,438.00
2023-07-12T04:07:19.750Z,438.00
2023-07-12T04:08:19.725Z,437.00
2023-07-12T04:09:19.688Z,436.00
2023-07-12T04:10:19.685Z,433.00
2023-07-12T04:11:19.647Z,435.00
2023-07-12T04:12:19.623Z,437.00
2023-07-12T04:13:19.589Z,438.00
2023-07-12T04:14:19.560Z,436.00
2023-07-12T04:15:19.585Z,437.00
2023-07-12T04:16:19.535Z,439.00
2023-07-12T04:17:19.467Z,443.00
2023-07-12T04:18:19.502Z,444.00
2023-07-12T04:19:19.402Z,442.00
2023-07-12T04:20:19.363Z,440.00
2023-07-12T04:21:19.340Z,439.00
2023-07-12T04:22:19.313Z,440.00
2023-07-12T04:23:19.285Z,441.00
2023-07-12T04:24:19.264Z,442.00
2023-07-12T04:25:19.230Z,441.00
2023-07-12T04:26:19.524Z,440.00
2023-07-12T04:27:19.189Z,442.00
2023-07-12T04:28:19.159Z,443.00
2023-07-12T04:29:19.133Z,442.00
2023-07-12T04:30:19.100Z,441.00
2023-07-12T04:31:19.235Z,441.00
2023-07-12T04:32:19.056Z,442.00
2023-07-12T04:33:19.036Z,441.00
2023-07-12T04:34:33.487Z,441.00
2023-07-12T04:35:19.978Z,440.00
2023-07-12T04:36:18.944Z,441.00
2023-07-12T04:37:18.931Z,441.00
2023-07-12T04:38:18.889Z,441.00
2023-07-12T04:39:18.863Z,441.00
2023-07-12T04:40:18.834Z,441.00
2023-07-12T04:41:18.806Z,441.00
2023-07-12T04:42:18.768Z,440.00
2023-07-12T04:43:18.738Z,436.00
2023-07-12T04:44:18.710Z,434.00
2023-07-12T04:45:18.688Z,435.00
2023-07-12T04:46:18.655Z,435.00
2023-07-12T04:47:18.647Z,438.00
2023-07-12T04:48:18.618Z,436.00
2023-07-12T04:49:18.629Z,437.00
2023-07-12T04:50:18.640Z,440.00
2023-07-12T04:51:18.660Z,443.00
2023-07-12T04:52:18.675Z,445.00
2023-07-12T04:53:18.691Z,444.00
2023-07-12T04:54:18.705Z,443.00
2023-07-12T04:55:18.720Z,443.00
2023-07-12T04:56:18.726Z,444.00
2023-07-12T04:57:18.745Z,446.00
2023-07-12T04:58:18.757Z,446.00
2023-07-12T04:59:18.783Z,445.00
2023-07-12T05:00:18.784Z,447.00
2023-07-12T05:01:18.844Z,450.00
2023-07-12T05:02:18.809Z,451.00
2023-07-12T05:03:18.891Z,452.00
2023-07-12T05:04:18.825Z,455.00
2023-07-12T05:05:18.859Z,454.00
2023-07-12T05:06:23.488Z,453.00
2023-07-12T05:07:19.840Z,455.00
2023-07-12T05:08:18.803Z,454.00
2023-07-12T05:09:18.775Z,454.00
2023-07-12T05:10:18.743Z,456.00
2023-07-12T05:11:18.710Z,455.00
2023-07-12T05:12:18.681Z,454.00
2023-07-12T05:13:18.658Z,456.00
2023-07-12T05:14:18.636Z,457.00
2023-07-12T05:15:18.605Z,457.00
2023-07-12T05:16:18.639Z,457.00
2023-07-12T05:17:18.555Z,459.00
2023-07-12T05:18:18.627Z,461.00
2023-07-12T05:19:18.508Z,460.00
2023-07-12T05:20:18.516Z,462.00
2023-07-12T05:21:18.484Z,462.00
2023-07-12T05:22:18.485Z,462.00
2023-07-12T05:23:18.489Z,462.00
2023-07-12T05:24:18.508Z,462.00
2023-07-12T05:25:18.516Z,465.00
2023-07-12T05:26:18.531Z,464.00
2023-07-12T05:27:18.534Z,465.00
2023-07-12T05:28:18.539Z,463.00
2023-07-12T05:29:18.553Z,465.00
2023-07-12T05:30:18.552Z,460.00
2023-07-12T05:31:18.593Z,458.00
2023-07-12T05:32:18.584Z,455.00
2023-07-12T05:33:18.691Z,455.00
2023-07-12T05:34:18.592Z,455.00
2023-07-12T05:35:18.596Z,456.00
2023-07-12T05:36:18.599Z,459.00
2023-07-12T05:37:18.610Z,459.00
2023-07-12T05:38:18.618Z,459.00
2023-07-12T05:39:18.610Z,458.00
2023-07-12T05:40:18.621Z,455.00
2023-07-12T05:41:18.632Z,453.00
2023-07-12T05:42:18.653Z,452.00
2023-07-12T05:43:18.651Z,451.00
2023-07-12T05:44:18.669Z,449.00
2023-07-12T05:45:18.676Z,450.00
2023-07-12T05:46:18.710Z,448.00
2023-07-12T05:47:18.748Z,447.00
2023-07-12T05:48:18.717Z,446.00
2023-07-12T05:49:18.721Z,444.00
2023-07-12T05:50:18.755Z,446.00
2023-07-12T05:51:18.784Z,449.00
2023-07-12T05:52:18.797Z,450.00
2023-07-12T05:53:18.777Z,452.00
2023-07-12T05:54:18.802Z,453.00
2023-07-12T05:55:18.802Z,453.00
2023-07-12T05:56:18.826Z,455.00
2023-07-12T05:57:18.830Z,454.00
2023-07-12T05:58:18.832Z,451.00
2023-07-12T05:59:18.847Z,453.00
2023-07-12T06:00:19.002Z,455.00
2023-07-12T06:01:18.864Z,454.00
2023-07-12T06:02:18.915Z,454.00
2023-07-12T06:03:19.000Z,453.00
2023-07-12T06:04:20.112Z,455.00
2023-07-12T06:05:18.856Z,456.00
2023-07-12T06:06:18.822Z,455.00
2023-07-12T06:07:18.804Z,456.00
2023-07-12T06:08:18.787Z,456.00
2023-07-12T06:09:18.757Z,454.00
2023-07-12T06:10:18.726Z,452.00
2023-07-12T06:11:18.708Z,456.00
2023-07-12T06:12:18.681Z,460.00
2023-07-12T06:13:18.659Z,461.00
2023-07-12T06:14:18.640Z,459.00
2023-07-12T06:15:18.609Z,459.00
2023-07-12T06:16:18.637Z,459.00
2023-07-12T06:17:18.664Z,459.00
2023-07-12T06:18:18.676Z,459.00
2023-07-12T06:19:18.513Z,461.00
2023-07-12T06:20:18.526Z,461.00
2023-07-12T06:21:18.475Z,462.00
2023-07-12T06:22:18.445Z,460.00
2023-07-12T06:23:18.421Z,460.00
2023-07-12T06:24:18.385Z,461.00
2023-07-12T06:25:18.357Z,461.00
2023-07-12T06:26:18.330Z,462.00
2023-07-12T06:27:18.300Z,462.00
2023-07-12T06:28:18.271Z,461.00
2023-07-12T06:29:18.266Z,460.00
2023-07-12T06:30:18.230Z,459.00
2023-07-12T06:31:18.214Z,459.00
2023-07-12T06:32:18.163Z,458.00
2023-07-12T06:33:18.134Z,457.00
2023-07-12T06:34:18.130Z,459.00
2023-07-12T06:35:18.090Z,457.00
2023-07-12T06:36:18.049Z,456.00
2023-07-12T06:37:18.032Z,455.00
2023-07-12T06:38:18.017Z,457.00
2023-07-12T06:39:18.002Z,455.00
2023-07-12T06:40:17.940Z,455.00
2023-07-12T06:41:17.915Z,457.00
2023-07-12T06:42:17.900Z,458.00
2023-07-12T06:43:17.860Z,462.00
2023-07-12T06:44:17.825Z,463.00
2023-07-12T06:45:17.807Z,464.00
2023-07-12T06:46:17.856Z,461.00
2023-07-12T06:47:17.766Z,460.00
2023-07-12T06:48:17.769Z,459.00
2023-07-12T06:49:17.718Z,462.00
2023-07-12T06:50:17.696Z,458.00
2023-07-12T06:51:17.679Z,454.00
2023-07-12T06:52:17.655Z,453.00
2023-07-12T06:53:17.633Z,453.00
2023-07-12T06:54:17.598Z,451.00
2023-07-12T06:55:17.580Z,452.00
2023-07-12T06:56:17.543Z,450.00
2023-07-12T06:57:17.521Z,450.00
2023-07-12T06:58:17.491Z,450.00
2023-07-12T06:59:17.460Z,450.00
2023-07-12T07:00:17.442Z,448.00
2023-07-12T07:01:17.464Z,449.00
2023-07-12T07:02:17.395Z,447.00
2023-07-12T07:03:17.363Z,448.00
2023-07-12T07:04:17.412Z,447.00
2023-07-12T07:05:17.340Z,448.00
2023-07-12T07:06:17.302Z,446.00
2023-07-12T07:07:17.289Z,446.00
2023-07-12T07:08:17.307Z,445.00
2023-07-12T07:09:17.238Z,444.00
2023-07-12T07:10:17.257Z,445.00
2023-07-12T07:11:17.275Z,444.00
2023-07-12T07:12:17.308Z,445.00
2023-07-12T07:13:17.317Z,446.00
2023-07-12T07:14:17.328Z,445.00
2023-07-12T07:15:17.342Z,443.00
2023-07-12T07:16:17.414Z,442.00
2023-07-12T07:17:17.378Z,443.00
2023-07-12T07:18:17.561Z,445.00
2023-07-12T07:19:17.386Z,446.00
2023-07-12T07:20:17.413Z,445.00
2023-07-12T07:21:17.441Z,447.00
2023-07-12T07:22:17.541Z,446.00
2023-07-12T07:23:17.452Z,448.00
2023-07-12T07:24:17.467Z,450.00
2023-07-12T07:25:21.154Z,451.00
2023-07-12T07:26:17.551Z,450.00
2023-07-12T07:27:17.455Z,448.00
2023-07-12T07:28:17.417Z,448.00
2023-07-12T07:29:17.384Z,448.00
2023-07-12T07:30:17.370Z,449.00
2023-07-12T07:31:17.381Z,449.00
2023-07-12T07:32:17.565Z,450.00
2023-07-12T07:33:17.301Z,453.00
2023-07-12T07:34:17.285Z,454.00
2023-07-12T07:35:17.271Z,452.00
2023-07-12T07:36:17.238Z,452.00
2023-07-12T07:37:17.215Z,451.00
2023-07-12T07:38:17.192Z,449.00
2023-07-12T07:39:17.212Z,450.00
2023-07-12T07:40:17.191Z,451.00
2023-07-12T07:41:17.152Z,452.00
2023-07-12T07:42:17.157Z,451.00
2023-07-12T07:43:17.130Z,452.00
2023-07-12T07:44:17.141Z,450.00
2023-07-12T07:45:17.162Z,450.00
2023-07-12T07:46:17.189Z,451.00
2023-07-12T07:47:17.192Z,451.00
2023-07-12T07:48:17.200Z,450.00
2023-07-12T07:49:17.214Z,448.00
2023-07-12T07:50:17.218Z,448.00
2023-07-12T07:51:17.232Z,450.00
2023-07-12T07:52:17.240Z,451.00
2023-07-12T07:53:17.262Z,446.00
2023-07-12T07:54:17.271Z,447.00
2023-07-12T07:55:17.292Z,445.00
2023-07-12T07:56:17.303Z,444.00
2023-07-12T07:57:17.319Z,443.00
2023-07-12T07:58:17.340Z,444.00
2023-07-12T07:59:17.341Z,443.00
2023-07-12T08:00:17.390Z,443.00
2023-07-12T08:01:17.381Z,444.00
2023-07-12T08:02:17.395Z,443.00
2023-07-12T08:03:17.573Z,445.00
2023-07-12T08:04:17.485Z,445.00
2023-07-12T08:05:17.437Z,445.00
2023-07-12T08:06:17.462Z,444.00
2023-07-12T08:07:17.496Z,443.00
2023-07-12T08:08:17.505Z,444.00
2023-07-12T08:09:17.502Z,444.00
2023-07-12T08:10:17.576Z,443.00
2023-07-12T08:11:17.537Z,442.00
2023-07-12T08:12:17.553Z,441.00
2023-07-12T08:13:17.565Z,443.00
2023-07-12T08:14:17.589Z,442.00
2023-07-12T08:15:17.600Z,440.00
2023-07-12T08:16:17.673Z,441.00
2023-07-12T08:17:17.628Z,444.00
2023-07-12T08:18:17.738Z,444.00
2023-07-12T08:19:18.778Z,445.00
2023-07-12T08:20:17.678Z,445.00
2023-07-12T08:21:17.701Z,447.00
2023-07-12T08:22:17.719Z,448.00
2023-07-12T08:23:17.747Z,449.00
2023-07-12T08:24:17.766Z,447.00
2023-07-12T08:25:17.765Z,446.00
2023-07-12T08:26:17.783Z,446.00
2023-07-12T08:27:17.805Z,443.00
2023-07-12T08:28:17.806Z,443.00
2023-07-12T08:29:17.817Z,444.00
2023-07-12T08:30:17.847Z,444.00
2023-07-12T08:31:17.896Z,445.00
2023-07-12T08:32:17.860Z,443.00
2023-07-12T08:33:17.889Z,444.00
2023-07-12T08:34:17.904Z,445.00
2023-07-12T08:35:17.960Z,448.00
2023-07-12T08:36:17.933Z,447.00
2023-07-12T08:37:17.940Z,450.00
2023-07-12T08:38:18.022Z,450.00
2023-07-12T08:39:17.985Z,448.00
2023-07-12T08:40:17.982Z,446.00
2023-07-12T08:41:17.990Z,444.00
2023-07-12T08:42:18.009Z,441.00
2023-07-12T08:43:18.129Z,441.00
2023-07-12T08:44:18.041Z,442.00
2023-07-12T08:45:18.048Z,445.00
2023-07-12T08:46:18.178Z,447.00
2023-07-12T08:47:18.066Z,448.00
2023-07-12T08:48:18.088Z,446.00
2023-07-12T08:49:18.096Z,448.00
2023-07-12T08:50:18.119Z,448.00
2023-07-12T08:51:18.122Z,448.00
2023-07-12T08:52:18.143Z,449.00
2023-07-12T08:53:18.172Z,449.00
2023-07-12T08:54:18.188Z,447.00
2023-07-12T08:55:18.194Z,447.00
2023-07-12T08:56:18.200Z,445.00
2023-07-12T08:57:18.210Z,445.00
2023-07-12T08:58:18.233Z,445.00
2023-07-12T08:59:19.902Z,445.00
2023-07-12T09:00:18.214Z,446.00
2023-07-12T09:01:18.238Z,447.00
2023-07-12T09:02:18.165Z,448.00
2023-07-12T09:03:18.152Z,449.00
2023-07-12T09:04:18.117Z,448.00
2023-07-12T09:05:18.226Z,451.00
2023-07-12T09:06:18.070Z,450.00
2023-07-12T09:07:18.072Z,450.00
2023-07-12T09:08:18.037Z,447.00
2023-07-12T09:09:18.009Z,446.00
2023-07-12T09:10:17.994Z,448.00
2023-07-12T09:11:17.960Z,448.00
2023-07-12T09:12:17.930Z,448.00
2023-07-12T09:13:17.900Z,449.00
2023-07-12T09:14:17.927Z,446.00
2023-07-12T09:15:17.857Z,445.00
2023-07-12T09:16:17.884Z,446.00
2023-07-12T09:17:17.853Z,448.00
2023-07-12T09:18:17.870Z,449.00
2023-07-12T09:19:17.769Z,450.00
2023-07-12T09:20:17.735Z,449.00
2023-07-12T09:21:17.717Z,451.00
2023-07-12T09:22:17.681Z,452.00
2023-07-12T09:23:17.651Z,453.00
2023-07-12T09:24:17.614Z,453.00
2023-07-12T09:25:17.586Z,454.00
2023-07-12T09:26:17.563Z,452.00
2023-07-12T09:27:17.588Z,449.00
2023-07-12T09:28:17.532Z,448.00
2023-07-12T09:29:17.497Z,448.00
2023-07-12T09:30:17.468Z,450.00
2023-07-12T09:31:17.511Z,453.00
2023-07-12T09:32:17.472Z,454.00
2023-07-12T09:33:17.380Z,458.00
2023-07-12T09:34:17.357Z,458.00
2023-07-12T09:35:17.339Z,461.00
2023-07-12T09:36:17.316Z,460.00
2023-07-12T09:37:17.302Z,462.00
2023-07-12T09:38:17.291Z,462.00
2023-07-12T09:39:17.240Z,464.00
2023-07-12T09:40:17.213Z,467.00
2023-07-12T09:41:17.200Z,468.00
2023-07-12T09:42:17.169Z,472.00
2023-07-12T09:43:17.159Z,471.00
2023-07-12T09:44:17.120Z,470.00
2023-07-12T09:45:17.083Z,471.00
2023-07-12T09:46:17.322Z,468.00
2023-07-12T09:47:17.033Z,466.00
2023-07-12T09:48:16.995Z,467.00
2023-07-12T09:49:16.976Z,466.00
2023-07-12T09:50:16.995Z,465.00
2023-07-12T09:51:16.935Z,464.00
2023-07-12T09:52:16.893Z,463.00
2023-07-12T09:53:16.890Z,466.00
2023-07-12T09:54:16.843Z,470.00
2023-07-12T09:55:16.810Z,473.00
2023-07-12T09:56:16.775Z,473.00
2023-07-12T09:57:16.758Z,471.00
2023-07-12T09:58:16.780Z,471.00
2023-07-12T09:59:16.693Z,471.00
2023-07-12T10:00:16.672Z,472.00
2023-07-12T10:01:16.704Z,474.00
2023-07-12T10:02:16.655Z,474.00
2023-07-12T10:03:16.592Z,475.00
2023-07-12T10:04:16.588Z,479.00
2023-07-12T10:05:16.591Z,480.00
2023-07-12T10:06:16.629Z,482.00
2023-07-12T10:07:16.566Z,482.00
2023-07-12T10:08:16.581Z,482.00
2023-07-12T10:09:16.577Z,482.00
2023-07-12T10:10:16.579Z,479.00
2023-07-12T10:11:16.603Z,482.00
2023-07-12T10:12:16.588Z,482.00
2023-07-12T10:13:16.601Z,482.00
2023-07-12T10:14:16.601Z,480.00
2023-07-12T10:15:16.590Z,480.00
2023-07-12T10:16:16.598Z,481.00
2023-07-12T10:17:16.632Z,482.00
2023-07-12T10:18:16.679Z,480.00
2023-07-12T10:19:16.601Z,479.00
2023-07-12T10:20:16.607Z,478.00
2023-07-12T10:21:16.609Z,475.00
2023-07-12T10:22:16.630Z,474.00
2023-07-12T10:23:16.634Z,474.00
2023-07-12T10:24:16.643Z,474.00
2023-07-12T10:25:16.640Z,473.00
2023-07-12T10:26:16.643Z,471.00
2023-07-12T10:27:16.646Z,470.00
2023-07-12T10:28:17.616Z,468.00
2023-07-12T10:29:16.660Z,470.00
2023-07-12T10:30:16.670Z,472.00
2023-07-12T10:31:16.744Z,471.00
2023-07-12T10:32:16.678Z,472.00
2023-07-12T10:33:16.775Z,469.00
2023-07-12T10:34:16.691Z,467.00
2023-07-12T10:35:16.698Z,468.00
2023-07-12T10:36:16.708Z,470.00
2023-07-12T10:37:16.735Z,470.00
2023-07-12T10:38:16.723Z,467.00
2023-07-12T10:39:16.733Z,465.00
2023-07-12T10:40:16.718Z,464.00
2023-07-12T10:41:16.723Z,462.00
2023-07-12T10:42:16.724Z,459.00
2023-07-12T10:43:16.735Z,458.00
2023-07-12T10:44:16.729Z,459.00
2023-07-12T10:45:16.729Z,461.00
2023-07-12T10:46:16.785Z,459.00
2023-07-12T10:47:16.747Z,459.00
2023-07-12T10:48:16.734Z,457.00
2023-07-12T10:49:16.739Z,455.00
2023-07-12T10:50:16.727Z,456.00
2023-07-12T10:51:16.790Z,458.00
2023-07-12T10:52:16.733Z,459.00
2023-07-12T10:53:28.934Z,461.00
2023-07-12T10:54:17.712Z,462.00
2023-07-12T10:55:16.708Z,466.00
2023-07-12T10:56:16.643Z,466.00
2023-07-12T10:57:16.622Z,467.00
2023-07-12T10:58:16.581Z,470.00
2023-07-12T10:59:17.128Z,470.00
2023-07-12T11:00:16.532Z,471.00
2023-07-12T11:01:16.557Z,472.00
2023-07-12T11:02:16.479Z,471.00
2023-07-12T11:03:16.495Z,471.00
2023-07-12T11:04:16.404Z,472.00
2023-07-12T11:05:16.366Z,472.00
2023-07-12T11:06:16.336Z,470.00
2023-07-12T11:07:16.345Z,470.00
2023-07-12T11:08:16.291Z,471.00
2023-07-12T11:09:16.262Z,473.00
2023-07-12T11:10:16.369Z,473.00
2023-07-12T11:11:16.217Z,473.00
2023-07-12T11:12:16.219Z,471.00
2023-07-12T11:13:16.237Z,472.00
2023-07-12T11:14:16.235Z,471.00
2023-07-12T11:15:16.239Z,474.00
2023-07-12T11:16:16.247Z,475.00
2023-07-12T11:17:16.240Z,476.00
2023-07-12T11:18:16.337Z,475.00
2023-07-12T11:19:16.255Z,476.00
2023-07-12T11:20:16.369Z,478.00
2023-07-12T11:21:16.251Z,477.00
2023-07-12T11:22:16.294Z,477.00
2023-07-12T11:23:16.261Z,475.00
2023-07-12T11:24:16.258Z,476.00
2023-07-12T11:25:16.263Z,476.00
2023-07-12T11:26:16.252Z,478.00
2023-07-12T11:27:16.265Z,477.00
2023-07-12T11:28:16.256Z,477.00
2023-07-12T11:29:16.266Z,477.00
2023-07-12T11:30:16.373Z,478.00
2023-07-12T11:31:16.333Z,478.00
2023-07-12T11:32:16.272Z,480.00
2023-07-12T11:33:16.296Z,479.00
2023-07-12T11:34:16.269Z,480.00
2023-07-12T11:35:16.272Z,478.00
2023-07-12T11:36:16.277Z,477.00
2023-07-12T11:37:16.269Z,476.00
2023-07-12T11:38:16.269Z,477.00
2023-07-12T11:39:16.294Z,477.00
2023-07-12T11:40:16.334Z,475.00
2023-07-12T11:41:16.274Z,474.00
2023-07-12T11:42:16.281Z,474.00
2023-07-12T11:43:16.289Z,475.00
2023-07-12T11:44:16.278Z,473.00
2023-07-12T11:45:16.278Z,472.00
2023-07-12T11:46:16.318Z,472.00
2023-07-12T11:47:16.267Z,474.00
2023-07-12T11:48:16.312Z,474.00
2023-07-12T11:49:16.297Z,474.00
2023-07-12T11:50:16.262Z,475.00
2023-07-12T11:51:16.286Z,475.00
2023-07-12T11:52:16.285Z,474.00
2023-07-12T11:53:16.308Z,472.00
2023-07-12T11:54:16.309Z,470.00
2023-07-12T11:55:16.310Z,471.00
2023-07-12T11:56:16.369Z,471.00
2023-07-12T11:57:16.305Z,467.00
2023-07-12T11:58:16.309Z,465.00
2023-07-12T11:59:16.310Z,464.00
2023-07-12T12:00:16.341Z,464.00
2023-07-12T12:01:16.318Z,462.00
2023-07-12T12:02:16.320Z,463.00
2023-07-12T12:03:16.422Z,464.00
2023-07-12T12:04:16.406Z,465.00
2023-07-12T12:05:16.475Z,467.00
2023-07-12T12:06:16.300Z,467.00
2023-07-12T12:07:16.308Z,468.00
2023-07-12T12:08:16.301Z,470.00
2023-07-12T12:09:17.087Z,466.00
2023-07-12T12:10:16.305Z,466.00
2023-07-12T12:11:16.309Z,467.00
2023-07-12T12:12:16.360Z,468.00
2023-07-12T12:13:16.320Z,467.00
2023-07-12T12:14:16.311Z,469.00
2023-07-12T12:15:16.308Z,469.00
2023-07-12T12:16:16.320Z,470.00
2023-07-12T12:17:16.408Z,471.00
2023-07-12T12:18:16.574Z,471.00
2023-07-12T12:19:16.595Z,471.00
2023-07-12T12:20:16.863Z,471.00
2023-07-12T12:21:17.121Z,471.00
2023-07-12T12:22:16.453Z,471.00
2023-07-12T12:23:16.364Z,471.00
2023-07-12T12:24:16.366Z,471.00
2023-07-12T12:25:16.368Z,471.00
2023-07-12T12:26:16.391Z,471.00
2023-07-12T12:27:20.772Z,469.00
2023-07-12T12:28:16.317Z,469.00